createdAt,value
2017-10-14T00:01:17.163Z,12.50
2017-10-14T00:03:45.060Z,12.17
2017-10-14T00:06:12.567Z,10.07
2017-10-14T00:08:40.511Z,11.20
2017-10-14T00:11:08.019Z,10.97
2017-10-14T00:13:36.119Z,12.77
2017-10-14T00:16:04.050Z,10.73
2017-10-14T00:18:32.034Z,11.60
2017-10-14T00:21:00.388Z,12.30
2017-10-14T00:23:28.326Z,14.10
2017-10-14T00:25:55.868Z,14.27
2017-10-14T00:28:23.392Z,14.00
2017-10-14T00:30:50.919Z,14.77
2017-10-14T00:33:18.476Z,12.80
2017-10-14T00:35:45.987Z,10.80
2017-10-14T00:38:13.670Z,12.57
2017-10-14T00:40:41.253Z,11.30
2017-10-14T00:43:08.764Z,11.57
2017-10-14T00:45:36.299Z,13.47
2017-10-14T00:48:03.798Z,13.60
2017-10-14T00:50:32.124Z,14.80
2017-10-14T00:52:59.636Z,11.13
2017-10-14T00:55:27.162Z,11.30
2017-10-14T00:57:54.671Z,10.23
2017-10-14T01:00:22.984Z,12.40
2017-10-14T01:02:50.516Z,12.50
2017-10-14T01:05:18.845Z,12.00
2017-10-14T01:07:47.450Z,10.50
2017-10-14T01:10:14.960Z,11.20
2017-10-14T01:12:42.950Z,10.90
2017-10-14T01:15:10.465Z,11.20
2017-10-14T01:17:38.437Z,10.53
2017-10-14T01:20:05.955Z,11.93
2017-10-14T01:22:34.263Z,12.97
2017-10-14T01:25:01.797Z,14.70
2017-10-14T01:27:30.106Z,13.50
2017-10-14T01:29:57.682Z,14.37
2017-10-14T01:32:25.237Z,14.00
2017-10-14T01:34:52.816Z,11.90
2017-10-14T01:37:20.642Z,14.30
2017-10-14T01:39:48.925Z,12.80
2017-10-14T01:42:16.475Z,13.73
2017-10-14T01:44:43.984Z,13.13
2017-10-14T01:47:11.543Z,15.53
2017-10-14T01:49:39.477Z,12.10
2017-10-14T01:52:07.533Z,12.60
2017-10-14T01:54:35.138Z,10.87
2017-10-14T01:57:02.672Z,11.57
2017-10-14T01:59:30.240Z,12.57
2017-10-14T02:01:57.741Z,11.60
2017-10-14T02:04:26.062Z,11.47
2017-10-14T02:06:53.572Z,11.23
2017-10-14T02:09:21.952Z,10.63
2017-10-14T02:11:50.261Z,12.13
2017-10-14T02:14:17.780Z,12.53
2017-10-14T02:16:46.090Z,12.23
2017-10-14T02:19:13.631Z,14.30
2017-10-14T02:21:41.904Z,14.03
2017-10-14T02:24:09.444Z,13.23
2017-10-14T02:26:37.041Z,15.03
2017-10-14T02:29:04.550Z,14.60
2017-10-14T02:31:32.081Z,11.60
2017-10-14T02:33:59.629Z,13.10
2017-10-14T02:36:27.141Z,12.40
2017-10-14T02:38:54.857Z,11.80
2017-10-14T02:41:23.195Z,10.60
2017-10-14T02:43:50.698Z,10.93
2017-10-14T02:46:18.208Z,11.37
2017-10-14T02:48:46.508Z,11.10
2017-10-14T02:51:14.410Z,12.37
2017-10-14T02:53:41.942Z,11.93
2017-10-14T02:56:09.490Z,11.20
2017-10-14T02:58:37.015Z,11.00
2017-10-14T03:01:04.511Z,11.00
2017-10-14T03:03:32.064Z,12.07
2017-10-14T03:05:59.747Z,11.13
2017-10-14T03:08:27.240Z,12.03
2017-10-14T03:10:54.844Z,10.17
2017-10-14T03:13:22.339Z,9.40
2017-10-14T03:15:49.871Z,10.37
2017-10-14T03:18:17.408Z,11.60
2017-10-14T03:20:44.927Z,12.27
2017-10-14T03:23:12.476Z,12.30
2017-10-14T03:25:39.984Z,12.30
2017-10-14T03:28:08.281Z,11.90
2017-10-14T03:30:35.783Z,11.73
2017-10-14T03:33:03.325Z,13.60
2017-10-14T03:35:30.824Z,11.60
2017-10-14T03:37:58.363Z,9.33
2017-10-14T03:40:25.908Z,13.27
2017-10-14T03:42:53.407Z,10.43
2017-10-14T03:45:21.690Z,9.20
2017-10-14T03:47:50.000Z,9.10
2017-10-14T03:50:17.527Z,9.70
2017-10-14T03:52:45.852Z,10.30
2017-10-14T03:55:13.361Z,10.70
2017-10-14T03:57:40.876Z,9.60
2017-10-14T04:00:08.445Z,10.23
2017-10-14T04:02:36.029Z,12.07
2017-10-14T04:05:03.927Z,15.10
2017-10-14T04:07:32.563Z,11.90
2017-10-14T04:10:00.101Z,14.13
2017-10-14T04:12:27.611Z,14.47
2017-10-14T04:14:55.616Z,13.77
2017-10-14T04:17:23.959Z,14.47
2017-10-14T04:19:52.370Z,12.30
2017-10-14T04:22:19.900Z,10.97
2017-10-14T04:24:48.201Z,11.00
2017-10-14T04:27:15.728Z,12.10
2017-10-14T04:29:44.130Z,12.10
2017-10-14T04:32:11.628Z,11.63
2017-10-14T04:34:39.168Z,12.03
2017-10-14T04:37:07.156Z,13.90
2017-10-14T04:39:34.699Z,12.47
2017-10-14T04:42:02.205Z,12.53
2017-10-14T04:44:30.511Z,12.20
2017-10-14T04:46:58.442Z,12.80
2017-10-14T04:49:25.957Z,12.27
2017-10-14T04:51:53.495Z,13.67
2017-10-14T04:54:21.065Z,12.77
2017-10-14T04:56:48.568Z,12.63
2017-10-14T04:59:16.155Z,10.67
2017-10-14T05:01:43.701Z,10.23
2017-10-14T05:04:11.202Z,10.77
2017-10-14T05:06:38.774Z,12.10
2017-10-14T05:09:06.281Z,10.87
2017-10-14T05:11:34.308Z,10.87
2017-10-14T05:14:01.852Z,11.00
2017-10-14T05:16:29.708Z,12.17
2017-10-14T05:18:57.256Z,11.60
2017-10-14T05:21:25.366Z,12.40
2017-10-14T05:23:52.884Z,12.37
2017-10-14T05:26:20.386Z,12.90
2017-10-14T05:28:48.037Z,13.67
2017-10-14T05:31:15.585Z,14.03
2017-10-14T05:33:43.133Z,16.40
2017-10-14T05:36:10.632Z,14.10
2017-10-14T05:38:38.193Z,14.47
2017-10-14T05:41:05.700Z,15.70
2017-10-14T05:43:33.965Z,12.17
2017-10-14T05:46:01.565Z,11.90
2017-10-14T05:48:29.075Z,12.80
2017-10-14T05:50:57.374Z,13.00
2017-10-14T05:53:24.899Z,14.37
2017-10-14T05:55:53.607Z,14.43
2017-10-14T05:58:21.892Z,13.93
2017-10-14T06:00:50.201Z,11.27
2017-10-14T06:03:17.736Z,12.77
2017-10-14T06:05:45.244Z,11.80
2017-10-14T06:08:12.791Z,11.73
2017-10-14T06:10:40.315Z,10.47
2017-10-14T06:13:07.812Z,12.73
2017-10-14T06:15:35.409Z,11.97
2017-10-14T06:18:02.927Z,11.63
2017-10-14T06:20:31.308Z,14.70
2017-10-14T06:22:59.283Z,11.27
2017-10-14T06:25:27.178Z,10.10
2017-10-14T06:27:55.099Z,9.53
2017-10-14T06:30:22.714Z,7.33
2017-10-14T06:32:50.224Z,7.03
2017-10-14T06:35:17.726Z,6.00
2017-10-14T06:37:46.023Z,6.00
2017-10-14T06:40:13.550Z,6.17
2017-10-14T06:42:41.832Z,5.73
2017-10-14T06:45:09.772Z,7.13
2017-10-14T06:47:37.282Z,5.93
2017-10-14T06:50:05.239Z,5.00
2017-10-14T06:52:33.508Z,5.10
2017-10-14T06:55:01.049Z,6.80
2017-10-14T06:57:28.566Z,5.20
2017-10-14T06:59:56.738Z,5.30
2017-10-14T07:02:24.644Z,5.60
2017-10-14T07:04:52.648Z,6.27
2017-10-14T07:07:21.013Z,8.37
2017-10-14T07:09:48.579Z,5.87
2017-10-14T07:12:16.993Z,6.40
2017-10-14T07:14:44.521Z,6.83
2017-10-14T07:17:12.857Z,8.00
2017-10-14T07:19:40.389Z,6.30
2017-10-14T07:22:08.053Z,7.00
2017-10-14T07:24:35.650Z,5.87
2017-10-14T07:27:03.200Z,7.33
2017-10-14T07:29:31.327Z,6.57
2017-10-14T07:31:59.328Z,5.40
2017-10-14T07:34:27.311Z,5.47
2017-10-14T07:36:55.580Z,6.20
2017-10-14T07:39:23.166Z,5.50
2017-10-14T07:41:50.712Z,5.60
2017-10-14T07:44:18.646Z,5.83
2017-10-14T07:46:46.191Z,5.40
2017-10-14T07:49:13.689Z,5.67
2017-10-14T07:51:41.184Z,5.43
2017-10-14T07:54:09.138Z,6.77
2017-10-14T07:56:37.237Z,16.10
2017-10-14T07:59:05.423Z,7.00
2017-10-14T08:01:32.967Z,6.63
2017-10-14T08:04:00.493Z,6.60
2017-10-14T08:06:28.400Z,6.87
2017-10-14T08:08:56.356Z,6.03
2017-10-14T08:11:24.279Z,6.27
2017-10-14T08:13:51.792Z,7.23
2017-10-14T08:16:20.079Z,5.83
2017-10-14T08:18:47.615Z,6.37
2017-10-14T08:21:15.788Z,6.40
2017-10-14T08:23:44.089Z,5.87
2017-10-14T08:26:11.591Z,6.37
2017-10-14T08:28:39.365Z,6.70
2017-10-14T08:31:07.497Z,6.60
2017-10-14T08:33:35.022Z,5.40
2017-10-14T08:36:02.520Z,8.20
2017-10-14T08:38:30.278Z,6.80
2017-10-14T08:40:57.801Z,7.00
2017-10-14T08:43:25.423Z,7.53
2017-10-14T08:45:52.973Z,7.80
2017-10-14T08:48:20.618Z,7.10
2017-10-14T08:50:48.383Z,6.03
2017-10-14T08:53:15.891Z,7.47
2017-10-14T08:55:43.436Z,6.90
2017-10-14T08:58:11.166Z,7.87
2017-10-14T09:00:39.034Z,8.07
2017-10-14T09:03:07.247Z,9.57
2017-10-14T09:05:35.383Z,6.83
2017-10-14T09:08:03.075Z,9.40
2017-10-14T09:10:30.661Z,7.27
2017-10-14T09:12:58.213Z,7.23
2017-10-14T09:15:26.159Z,8.20
2017-10-14T09:17:54.152Z,7.20
2017-10-14T09:20:22.141Z,8.73
2017-10-14T09:22:50.550Z,6.77
2017-10-14T09:25:18.108Z,8.00
2017-10-14T09:27:46.376Z,7.73
2017-10-14T09:30:13.887Z,8.80
2017-10-14T09:32:41.424Z,7.63
2017-10-14T09:35:08.931Z,7.70
2017-10-14T09:37:37.253Z,8.00
2017-10-14T09:40:05.011Z,7.77
2017-10-14T09:42:32.768Z,7.83
2017-10-14T09:45:00.534Z,8.73
2017-10-14T09:47:28.443Z,8.10
2017-10-14T09:49:55.998Z,9.57
2017-10-14T09:52:23.675Z,7.93
2017-10-14T09:54:51.946Z,9.30
2017-10-14T09:57:19.909Z,11.47
2017-10-14T09:59:47.452Z,8.13
2017-10-14T10:02:15.598Z,8.67
2017-10-14T10:04:43.106Z,9.37
2017-10-14T10:07:11.044Z,11.00
2017-10-14T10:09:39.126Z,8.23
2017-10-14T10:12:07.432Z,7.57
2017-10-14T10:14:35.758Z,8.47
2017-10-14T10:17:03.703Z,10.00
2017-10-14T10:19:31.603Z,8.50
2017-10-14T10:21:59.505Z,8.27
2017-10-14T10:24:27.659Z,9.10
2017-10-14T10:26:55.357Z,7.57
2017-10-14T10:29:23.307Z,8.37
2017-10-14T10:31:51.464Z,7.50
2017-10-14T10:34:19.509Z,9.10
2017-10-14T10:36:47.831Z,7.70
2017-10-14T10:39:15.341Z,8.67
2017-10-14T10:41:44.346Z,6.80
2017-10-14T10:44:12.511Z,8.47
2017-10-14T10:46:40.325Z,7.73
2017-10-14T10:49:08.142Z,9.87
2017-10-14T10:51:36.128Z,6.70
2017-10-14T10:56:45.686Z,7.30
2017-10-14T10:59:13.411Z,6.77
2017-10-14T11:01:41.185Z,5.97
